Time;durP1;ratioP1;P1;durP2;ratioP2;P2;SDS_P1;SDS_P2;PMS_P1;PMS_P2;Temp;Humidity;BMP_temperature;BMP_pressure;BME280_temperature;BME280_humidity;BME280_pressure;Samples;Min_cycle;Max_cycle;Signal;HPM_P1;HPM_P2
2022/03/14 00:02:25;;;;;;;2.23;2.03;;;;;;;;;;5037807;28;20638;-69
2022/03/14 00:04:54;;;;;;;2.17;1.90;;;;;;;;;;5038335;28;20318;-69
2022/03/14 00:07:23;;;;;;;1.50;1.40;;;;;;;;;;5037749;28;20646;-69
2022/03/14 00:09:52;;;;;;;1.03;1.03;;;;;;;;;;5037942;28;20683;-69
2022/03/14 00:12:23;;;;;;;1.70;1.60;;;;;;;;;;5037818;28;20675;-69
2022/03/14 00:14:53;;;;;;;1.60;1.50;;;;;;;;;;5037983;28;20679;-69
2022/03/14 00:17:21;;;;;;;2.07;1.37;;;;;;;;;;5038113;28;20242;-69
2022/03/14 00:19:49;;;;;;;3.33;2.17;;;;;;;;;;5038096;28;20239;-69
2022/03/14 00:22:20;;;;;;;1.70;1.60;;;;;;;;;;5037545;28;20662;-69
2022/03/14 00:24:50;;;;;;;1.50;1.40;;;;;;;;;;5037623;28;20281;-69
2022/03/14 00:27:18;;;;;;;1.10;1.10;;;;;;;;;;5037962;28;20311;-69
2022/03/14 00:29:46;;;;;;;1.10;1.10;;;;;;;;;;5038019;28;20290;-69
2022/03/14 00:32:14;;;;;;;1.30;1.20;;;;;;;;;;5037437;28;20750;-69
2022/03/14 00:34:42;;;;;;;1.13;1.13;;;;;;;;;;5037636;28;20235;-69
2022/03/14 00:37:10;;;;;;;1.30;1.20;;;;;;;;;;5037502;28;20311;-69
2022/03/14 00:39:38;;;;;;;1.30;1.20;;;;;;;;;;5037754;28;20292;-69
2022/03/14 00:42:07;;;;;;;1.80;1.70;;;;;;;;;;5037320;28;20733;-69
2022/03/14 00:44:35;;;;;;;1.20;1.20;;;;;;;;;;5037557;28;20316;-69
2022/03/14 00:47:04;;;;;;;1.70;1.60;;;;;;;;;;5037218;28;20275;-69
2022/03/14 00:49:33;;;;;;;1.60;1.50;;;;;;;;;;5037407;28;20254;-69
2022/03/14 00:52:06;;;;;;;2.77;1.50;;;;;;;;;;5037412;28;20299;-69
2022/03/14 00:54:34;;;;;;;2.40;1.50;;;;;;;;;;5037582;28;20239;-69
2022/03/14 00:57:02;;;;;;;2.43;2.10;;;;;;;;;;5029282;28;20711;-69
2022/03/14 00:59:32;;;;;;;2.20;1.90;;;;;;;;;;5035423;28;20294;-69
2022/03/14 01:02:00;;;;;;;1.70;1.60;;;;;;;;;;5035412;28;20373;-69
2022/03/14 01:04:28;;;;;;;1.73;1.63;;;;;;;;;;5036348;28;20241;-69
2022/03/14 01:06:56;;;;;;;1.60;1.50;;;;;;;;;;5037112;28;20254;-69
2022/03/14 01:09:24;;;;;;;1.50;1.40;;;;;;;;;;5037458;28;20234;-69
2022/03/14 01:11:52;;;;;;;1.70;1.60;;;;;;;;;;5037644;28;20227;-69
2022/03/14 01:14:22;;;;;;;1.33;1.33;;;;;;;;;;5037519;28;20274;-69
2022/03/14 01:16:51;;;;;;;1.73;1.63;;;;;;;;;;5037244;28;20677;-69
2022/03/14 01:19:20;;;;;;;1.60;1.50;;;;;;;;;;5037385;28;20246;-69
2022/03/14 01:21:48;;;;;;;1.80;1.70;;;;;;;;;;5037522;28;20265;-69
2022/03/14 01:24:16;;;;;;;1.73;1.63;;;;;;;;;;5038130;28;20239;-69
2022/03/14 01:26:44;;;;;;;1.80;1.70;;;;;;;;;;5036738;28;20270;-69
2022/03/14 01:29:13;;;;;;;2.20;2.00;;;;;;;;;;5036274;28;20261;-68
2022/03/14 01:31:41;;;;;;;1.70;1.60;;;;;;;;;;5035481;28;20733;-69
2022/03/14 01:34:10;;;;;;;1.70;1.60;;;;;;;;;;5035140;28;20643;-69
2022/03/14 01:36:39;;;;;;;1.90;1.80;;;;;;;;;;5034879;28;20255;-70
2022/03/14 01:39:07;;;;;;;2.17;1.97;;;;;;;;;;5035210;28;20242;-68
2022/03/14 01:41:36;;;;;;;1.27;1.27;;;;;;;;;;5035766;28;20410;-69
2022/03/14 01:44:04;;;;;;;1.73;1.60;;;;;;;;;;5036956;28;20238;-69
2022/03/14 01:46:32;;;;;;;1.47;1.37;;;;;;;;;;5039655;28;20314;-69
2022/03/14 01:49:00;;;;;;;1.50;1.40;;;;;;;;;;5040536;28;20219;-69
2022/03/14 01:51:30;;;;;;;1.60;1.50;;;;;;;;;;5040561;28;20235;-69
2022/03/14 01:53:58;;;;;;;1.70;1.60;;;;;;;;;;5040642;28;20290;-69
2022/03/14 01:56:27;;;;;;;1.70;1.60;;;;;;;;;;5040703;28;20262;-69
2022/03/14 01:58:55;;;;;;;1.70;1.60;;;;;;;;;;5040691;28;20243;-69
2022/03/14 02:01:23;;;;;;;1.73;1.63;;;;;;;;;;5040464;28;20202;-69
2022/03/14 02:03:51;;;;;;;1.63;1.53;;;;;;;;;;5040315;28;20663;-68
2022/03/14 02:06:19;;;;;;;1.43;1.30;;;;;;;;;;5040052;28;20401;-69
2022/03/14 02:08:49;;;;;;;1.67;1.57;;;;;;;;;;5040345;28;20239;-69
2022/03/14 02:11:17;;;;;;;1.73;1.63;;;;;;;;;;5040132;28;20885;-69
2022/03/14 02:13:45;;;;;;;1.67;1.57;;;;;;;;;;5040366;28;20738;-69
2022/03/14 02:16:13;;;;;;;1.60;1.50;;;;;;;;;;5039835;28;20299;-68
2022/03/14 02:18:41;;;;;;;1.60;1.50;;;;;;;;;;5040151;28;20286;-68
2022/03/14 02:21:13;;;;;;;1.50;1.40;;;;;;;;;;5027218;28;20279;-68
2022/03/14 02:23:41;;;;;;;1.40;1.30;;;;;;;;;;5039897;28;20239;-68
2022/03/14 02:26:09;;;;;;;1.60;1.50;;;;;;;;;;5040229;28;20323;-68
2022/03/14 02:28:37;;;;;;;1.50;1.40;;;;;;;;;;5039893;28;20702;-68
2022/03/14 02:31:05;;;;;;;1.77;1.67;;;;;;;;;;5039786;28;20687;-68
2022/03/14 02:33:33;;;;;;;1.80;1.70;;;;;;;;;;5039847;28;20246;-69
2022/03/14 02:36:01;;;;;;;1.43;1.33;;;;;;;;;;5040040;28;20255;-68
2022/03/14 02:38:31;;;;;;;1.57;1.30;;;;;;;;;;5039665;28;20243;-68
2022/03/14 02:40:59;;;;;;;1.93;1.83;;;;;;;;;;5039840;28;20294;-68
2022/03/14 02:43:27;;;;;;;1.43;1.33;;;;;;;;;;5040026;28;20208;-69
2022/03/14 02:45:55;;;;;;;1.63;1.53;;;;;;;;;;5039602;28;20275;-69
2022/03/14 02:48:23;;;;;;;2.17;1.97;;;;;;;;;;5039573;28;20208;-68
2022/03/14 02:50:53;;;;;;;2.20;2.00;;;;;;;;;;5039889;28;20235;-68
2022/03/14 02:53:21;;;;;;;2.57;2.13;;;;;;;;;;5039603;28;20208;-68
2022/03/14 02:55:51;;;;;;;2.00;1.90;;;;;;;;;;5038878;28;20227;-68
2022/03/14 02:58:19;;;;;;;2.97;2.30;;;;;;;;;;5039382;28;20649;-68
2022/03/14 03:00:47;;;;;;;2.40;2.23;;;;;;;;;;5039417;28;20294;-68
2022/03/14 03:03:15;;;;;;;2.37;2.17;;;;;;;;;;5039697;28;20211;-68
2022/03/14 03:05:44;;;;;;;2.33;2.13;;;;;;;;;;5039463;28;20231;-69
2022/03/14 03:08:12;;;;;;;2.67;2.47;;;;;;;;;;5038956;28;20246;-68
2022/03/14 03:10:40;;;;;;;2.97;2.43;;;;;;;;;;5039628;28;20239;-68
2022/03/14 03:13:11;;;;;;;3.03;2.30;;;;;;;;;;5039113;28;20235;-68
2022/03/14 03:15:39;;;;;;;2.60;2.40;;;;;;;;;;5038936;28;20311;-69
2022/03/14 03:18:07;;;;;;;2.60;2.40;;;;;;;;;;5028309;28;20246;-69
2022/03/14 03:20:35;;;;;;;2.37;2.20;;;;;;;;;;5039250;28;20302;-69
2022/03/14 03:23:03;;;;;;;2.70;2.30;;;;;;;;;;5038480;28;20239;-69
2022/03/14 03:25:31;;;;;;;2.50;2.30;;;;;;;;;;5039083;28;20254;-68
2022/03/14 03:27:59;;;;;;;2.70;2.50;;;;;;;;;;5039009;28;20235;-68
2022/03/14 03:30:29;;;;;;;2.97;2.53;;;;;;;;;;5038782;28;20646;-68
2022/03/14 03:32:57;;;;;;;4.20;2.60;;;;;;;;;;5038920;28;20262;-68
2022/03/14 03:35:24;;;;;;;2.60;2.17;;;;;;;;;;5038954;28;20231;-68
2022/03/14 03:37:52;;;;;;;2.53;2.33;;;;;;;;;;5038327;28;20747;-68
2022/03/14 03:40:21;;;;;;;2.87;2.60;;;;;;;;;;5038560;28;20310;-68
2022/03/14 03:42:48;;;;;;;2.90;2.67;;;;;;;;;;5038550;28;20235;-69
2022/03/14 03:45:18;;;;;;;4.10;2.50;;;;;;;;;;5038335;28;20777;-69
2022/03/14 03:47:48;;;;;;;2.30;2.10;;;;;;;;;;5038448;28;20235;-68
2022/03/14 03:50:17;;;;;;;3.23;2.47;;;;;;;;;;5038609;28;20262;-68
2022/03/14 03:52:45;;;;;;;3.20;2.90;;;;;;;;;;5038158;28;20238;-68
2022/03/14 03:55:13;;;;;;;3.60;2.87;;;;;;;;;;5038503;28;20207;-68
2022/03/14 03:57:41;;;;;;;2.57;2.30;;;;;;;;;;5038217;28;20286;-68
2022/03/14 04:00:12;;;;;;;3.10;2.73;;;;;;;;;;5038662;28;20275;-69
2022/03/14 04:02:42;;;;;;;2.70;2.60;;;;;;;;;;5038060;28;20203;-69
2022/03/14 04:05:14;;;;;;;3.20;2.90;;;;;;;;;;5038453;28;20226;-69
2022/03/14 04:07:42;;;;;;;3.03;2.77;;;;;;;;;;5036972;28;20314;-69
2022/03/14 04:10:11;;;;;;;2.90;2.70;;;;;;;;;;5038229;28;20239;-69
2022/03/14 04:12:39;;;;;;;3.13;2.70;;;;;;;;;;5038154;28;20231;-69
2022/03/14 04:15:09;;;;;;;3.27;2.40;;;;;;;;;;5038211;28;20290;-69
2022/03/14 04:17:38;;;;;;;3.30;3.00;;;;;;;;;;5037953;28;20227;-69
2022/03/14 04:20:08;;;;;;;2.73;2.40;;;;;;;;;;5038151;28;20290;-69
2022/03/14 04:22:37;;;;;;;3.47;3.17;;;;;;;;;;5037798;28;20286;-69
2022/03/14 04:25:06;;;;;;;2.80;2.60;;;;;;;;;;5037902;28;20721;-69
2022/03/14 04:27:34;;;;;;;4.00;3.20;;;;;;;;;;5024667;28;20314;-69
2022/03/14 04:30:02;;;;;;;3.53;3.23;;;;;;;;;;5038178;28;20295;-69
2022/03/14 04:32:30;;;;;;;4.60;3.63;;;;;;;;;;5038019;28;20246;-69
2022/03/14 04:34:58;;;;;;;5.00;3.50;;;;;;;;;;5037820;28;20295;-69
2022/03/14 04:37:26;;;;;;;3.47;3.17;;;;;;;;;;5037852;28;20278;-69
2022/03/14 04:39:56;;;;;;;3.63;3.33;;;;;;;;;;5038007;28;20290;-69
2022/03/14 04:42:24;;;;;;;3.87;3.57;;;;;;;;;;5038608;28;20254;-69
2022/03/14 04:44:54;;;;;;;5.17;3.70;;;;;;;;;;5038233;28;20282;-69
2022/03/14 04:47:22;;;;;;;5.37;3.93;;;;;;;;;;5037675;28;20726;-69
2022/03/14 04:49:50;;;;;;;7.93;3.53;;;;;;;;;;5037959;28;20239;-69
2022/03/14 04:52:17;;;;;;;3.77;3.40;;;;;;;;;;5037684;28;20243;-69
2022/03/14 04:54:45;;;;;;;4.67;3.90;;;;;;;;;;5037331;28;20214;-69
2022/03/14 04:57:15;;;;;;;4.00;3.70;;;;;;;;;;5037784;28;20311;-69
2022/03/14 04:59:43;;;;;;;4.53;4.07;;;;;;;;;;5022142;28;20283;-69
2022/03/14 05:02:11;;;;;;;5.53;4.10;;;;;;;;;;5036301;28;20249;-69
2022/03/14 05:04:39;;;;;;;4.23;3.87;;;;;;;;;;5036783;28;20214;-69
2022/03/14 05:07:08;;;;;;;4.03;3.63;;;;;;;;;;5036021;28;20331;-69
2022/03/14 05:09:36;;;;;;;4.23;3.83;;;;;;;;;;5037801;28;20207;-69
2022/03/14 05:12:04;;;;;;;3.83;3.53;;;;;;;;;;5038922;28;20234;-69
2022/03/14 05:14:34;;;;;;;4.00;3.60;;;;;;;;;;5038529;28;20246;-69
2022/03/14 05:17:02;;;;;;;4.13;3.83;;;;;;;;;;5037643;28;20299;-69
2022/03/14 05:19:30;;;;;;;4.90;4.00;;;;;;;;;;5038258;28;20200;-69
2022/03/14 05:21:58;;;;;;;4.10;3.73;;;;;;;;;;5040649;28;20230;-69
2022/03/14 05:24:26;;;;;;;4.70;4.10;;;;;;;;;;5045797;28;20258;-70
2022/03/14 05:26:57;;;;;;;5.00;4.33;;;;;;;;;;5053413;28;20250;-70
2022/03/14 05:29:25;;;;;;;5.67;4.43;;;;;;;;;;5043406;28;20279;-69
2022/03/14 05:31:54;;;;;;;4.93;4.43;;;;;;;;;;5038617;28;20203;-69
2022/03/14 05:34:22;;;;;;;5.10;4.60;;;;;;;;;;5038917;28;20236;-70
2022/03/14 05:36:50;;;;;;;5.80;5.20;;;;;;;;;;5038519;28;20306;-70
2022/03/14 05:39:18;;;;;;;4.77;4.00;;;;;;;;;;5038341;28;20234;-70
2022/03/14 05:41:46;;;;;;;6.40;5.20;;;;;;;;;;5038641;28;20682;-69
2022/03/14 05:44:14;;;;;;;5.97;4.87;;;;;;;;;;5039174;28;20239;-69
2022/03/14 05:46:42;;;;;;;4.67;4.17;;;;;;;;;;5040025;28;20269;-69
2022/03/14 05:49:12;;;;;;;6.50;4.77;;;;;;;;;;5042881;28;20199;-69
2022/03/14 05:51:40;;;;;;;6.27;4.87;;;;;;;;;;5043717;28;20542;-70
2022/03/14 05:54:09;;;;;;;7.17;5.30;;;;;;;;;;5055858;28;20630;-70
2022/03/14 05:56:37;;;;;;;5.80;5.20;;;;;;;;;;5053175;28;20233;-69
2022/03/14 05:59:07;;;;;;;4.83;4.33;;;;;;;;;;5058240;28;20271;-70
2022/03/14 06:01:39;;;;;;;5.77;4.80;;;;;;;;;;5053426;28;20198;-70
2022/03/14 06:04:07;;;;;;;4.97;4.33;;;;;;;;;;5054985;28;20206;-69
2022/03/14 06:06:41;;;;;;;5.27;4.63;;;;;;;;;;5057366;28;20215;-69
2022/03/14 06:09:09;;;;;;;6.60;4.57;;;;;;;;;;5057737;28;20258;-68
2022/03/14 06:11:38;;;;;;;7.00;4.90;;;;;;;;;;5058070;28;20222;-69
2022/03/14 06:14:06;;;;;;;6.07;5.23;;;;;;;;;;5054804;28;20281;-68
2022/03/14 06:16:34;;;;;;;6.00;4.73;;;;;;;;;;5052714;28;20255;-70
2022/03/14 06:19:02;;;;;;;14.60;8.47;;;;;;;;;;5055899;28;20291;-70
2022/03/14 06:21:34;;;;;;;7.10;5.87;;;;;;;;;;5058277;28;20237;-69
2022/03/14 06:24:04;;;;;;;7.03;6.03;;;;;;;;;;5056041;28;20210;-68
2022/03/14 06:26:34;;;;;;;7.90;5.80;;;;;;;;;;5057393;28;20309;-68
2022/03/14 06:29:02;;;;;;;7.77;5.80;;;;;;;;;;5057008;28;20282;-70
2022/03/14 06:31:31;;;;;;;7.47;5.97;;;;;;;;;;5056692;28;20290;-68
2022/03/14 06:34:00;;;;;;;8.80;6.07;;;;;;;;;;5057755;28;20206;-69
2022/03/14 06:36:28;;;;;;;8.60;5.97;;;;;;;;;;5056155;28;20277;-68
2022/03/14 06:38:59;;;;;;;9.53;5.50;;;;;;;;;;5058391;28;20645;-68
2022/03/14 06:41:29;;;;;;;8.97;6.70;;;;;;;;;;5057027;28;20903;-69
2022/03/14 06:43:58;;;;;;;9.73;6.43;;;;;;;;;;5052441;28;20267;-69
2022/03/14 06:46:26;;;;;;;9.40;5.70;;;;;;;;;;5038944;28;20259;-66
2022/03/14 06:48:55;;;;;;;8.53;5.60;;;;;;;;;;5039261;28;20255;-66
2022/03/14 06:51:24;;;;;;;6.83;5.73;;;;;;;;;;5038950;28;20636;-65
2022/03/14 06:53:52;;;;;;;10.17;6.47;;;;;;;;;;5039832;28;20290;-65
2022/03/14 06:56:20;;;;;;;9.20;6.70;;;;;;;;;;5039740;28;20310;-65
2022/03/14 06:58:50;;;;;;;12.30;7.00;;;;;;;;;;5039719;28;20286;-65
2022/03/14 07:01:18;;;;;;;10.10;6.80;;;;;;;;;;5039295;28;20242;-64
2022/03/14 07:03:47;;;;;;;9.07;6.97;;;;;;;;;;5039357;28;20235;-64
2022/03/14 07:06:15;;;;;;;10.20;7.63;;;;;;;;;;5039256;28;20318;-65
2022/03/14 07:08:42;;;;;;;10.93;6.43;;;;;;;;;;5039418;28;20314;-64
2022/03/14 07:11:10;;;;;;;12.90;8.07;;;;;;;;;;5039250;28;20294;-68
2022/03/14 07:13:38;;;;;;;11.77;8.10;;;;;;;;;;5039119;28;20239;-67
2022/03/14 07:16:08;;;;;;;9.97;7.50;;;;;;;;;;5039198;28;20255;-69
2022/03/14 07:18:38;;;;;;;11.73;8.10;;;;;;;;;;5031545;28;20235;-68
2022/03/14 07:21:06;;;;;;;9.73;7.77;;;;;;;;;;5038433;28;20204;-69
2022/03/14 07:23:34;;;;;;;13.00;9.17;;;;;;;;;;5038653;28;20231;-68
2022/03/14 07:26:02;;;;;;;12.57;9.00;;;;;;;;;;5038460;28;20663;-68
2022/03/14 07:28:30;;;;;;;11.43;8.40;;;;;;;;;;5037511;28;20223;-67
2022/03/14 07:30:58;;;;;;;11.53;9.07;;;;;;;;;;5044519;28;20222;-67
2022/03/14 07:33:28;;;;;;;12.57;8.83;;;;;;;;;;5055920;28;20231;-69
2022/03/14 07:35:56;;;;;;;11.63;7.50;;;;;;;;;;5056551;28;20335;-69
2022/03/14 07:38:24;;;;;;;11.43;8.67;;;;;;;;;;5052007;28;20274;-72
2022/03/14 07:40:52;;;;;;;15.40;7.83;;;;;;;;;;5046304;28;20238;-71
2022/03/14 07:43:21;;;;;;;15.83;8.77;;;;;;;;;;5038403;28;20242;-72
2022/03/14 07:45:49;;;;;;;13.80;8.40;;;;;;;;;;5038106;28;20762;-72
2022/03/14 07:48:17;;;;;;;14.07;8.90;;;;;;;;;;5037887;28;20586;-69
2022/03/14 07:50:47;;;;;;;11.83;8.90;;;;;;;;;;5037594;28;20614;-71
2022/03/14 07:53:18;;;;;;;16.37;9.83;;;;;;;;;;5035046;28;20199;-72
2022/03/14 07:55:46;;;;;;;11.83;8.30;;;;;;;;;;5037983;28;20250;-73
2022/03/14 07:58:14;;;;;;;14.07;8.83;;;;;;;;;;5037841;28;20608;-73
2022/03/14 08:00:42;;;;;;;12.17;9.27;;;;;;;;;;5037534;28;20282;-73
2022/03/14 08:03:10;;;;;;;11.80;8.97;;;;;;;;;;5038196;28;20216;-73
2022/03/14 08:05:38;;;;;;;15.40;9.43;;;;;;;;;;5038535;28;20286;-73
2022/03/14 08:08:09;;;;;;;17.37;10.30;;;;;;;;;;5038439;28;20229;-73
2022/03/14 08:10:41;;;;;;;11.87;9.13;;;;;;;;;;5038686;28;20219;-74
2022/03/14 08:13:09;;;;;;;13.70;9.30;;;;;;;;;;5031604;28;20242;-74
2022/03/14 08:15:37;;;;;;;11.37;8.73;;;;;;;;;;5037775;28;20702;-71
2022/03/14 08:18:06;;;;;;;17.73;9.87;;;;;;;;;;5025265;28;20677;-72
2022/03/14 08:20:35;;;;;;;12.80;8.60;;;;;;;;;;5037651;28;20246;-71
2022/03/14 08:23:04;;;;;;;12.60;8.53;;;;;;;;;;5037502;28;20207;-73
2022/03/14 08:25:35;;;;;;;12.40;8.83;;;;;;;;;;5037624;28;20306;-71
2022/03/14 08:28:03;;;;;;;18.33;10.23;;;;;;;;;;5037731;28;20235;-73
2022/03/14 08:30:31;;;;;;;11.20;9.30;;;;;;;;;;5037548;28;20271;-73
2022/03/14 08:32:59;;;;;;;11.67;8.77;;;;;;;;;;5037530;28;20239;-72
2022/03/14 08:35:28;;;;;;;11.07;8.53;;;;;;;;;;5037723;28;20227;-71
2022/03/14 08:37:56;;;;;;;9.40;8.23;;;;;;;;;;5037340;28;20218;-73
2022/03/14 08:40:26;;;;;;;13.57;8.73;;;;;;;;;;5037416;28;20663;-73
2022/03/14 08:42:56;;;;;;;13.50;8.90;;;;;;;;;;5036799;28;20630;-68
2022/03/14 08:45:25;;;;;;;13.33;9.40;;;;;;;;;;5036797;28;20243;-70
2022/03/14 08:47:54;;;;;;;12.07;9.50;;;;;;;;;;5037291;28;20204;-72
2022/03/14 08:50:22;;;;;;;13.00;9.20;;;;;;;;;;5037055;28;20281;-72
2022/03/14 08:52:52;;;;;;;12.47;9.03;;;;;;;;;;5036954;28;20250;-71
2022/03/14 08:55:20;;;;;;;12.30;9.23;;;;;;;;;;5037171;28;20227;-72
2022/03/14 08:57:48;;;;;;;12.37;8.87;;;;;;;;;;5037530;28;20230;-72
2022/03/14 09:00:18;;;;;;;10.73;8.57;;;;;;;;;;5025562;28;20236;-71
2022/03/14 09:02:47;;;;;;;11.00;8.17;;;;;;;;;;5033466;28;20318;-72
2022/03/14 09:05:15;;;;;;;12.77;9.20;;;;;;;;;;5036898;28;20711;-72
2022/03/14 09:07:43;;;;;;;13.97;9.70;;;;;;;;;;5035519;28;20217;-72
2022/03/14 09:10:13;;;;;;;13.17;8.93;;;;;;;;;;5036784;28;20228;-72
2022/03/14 09:12:47;;;;;;;13.90;9.47;;;;;;;;;;5037282;28;20203;-72
2022/03/14 09:15:16;;;;;;;12.60;8.97;;;;;;;;;;5036975;28;20234;-72
2022/03/14 09:17:49;;;;;;;14.53;9.60;;;;;;;;;;5037263;28;20269;-72
2022/03/14 09:20:18;;;;;;;14.10;10.00;;;;;;;;;;5037049;28;20214;-72
2022/03/14 09:22:46;;;;;;;10.80;8.87;;;;;;;;;;5036563;28;20290;-72
2022/03/14 09:25:15;;;;;;;11.73;8.97;;;;;;;;;;5036835;28;20212;-72
2022/03/14 09:27:43;;;;;;;12.57;9.47;;;;;;;;;;5036789;28;20230;-72
2022/03/14 09:30:12;;;;;;;12.17;8.97;;;;;;;;;;5036264;28;20231;-70
2022/03/14 09:32:40;;;;;;;11.60;9.23;;;;;;;;;;5034988;28;20207;-72
2022/03/14 09:35:10;;;;;;;12.23;9.93;;;;;;;;;;5035629;28;20207;-72
2022/03/14 09:37:39;;;;;;;13.80;9.57;;;;;;;;;;5035756;28;20211;-71
2022/03/14 09:40:09;;;;;;;13.63;9.10;;;;;;;;;;5036147;28;20207;-74
2022/03/14 09:42:40;;;;;;;12.87;9.40;;;;;;;;;;5036186;28;20680;-73
2022/03/14 09:45:10;;;;;;;12.83;9.20;;;;;;;;;;5035359;28;20266;-72
2022/03/14 09:47:38;;;;;;;14.17;9.67;;;;;;;;;;5037036;28;20208;-72
2022/03/14 09:50:09;;;;;;;10.33;8.20;;;;;;;;;;5036611;28;20583;-73
2022/03/14 09:52:39;;;;;;;13.77;9.03;;;;;;;;;;5036733;28;20257;-73
2022/03/14 09:55:08;;;;;;;11.83;7.57;;;;;;;;;;5036676;28;20737;-71
2022/03/14 09:57:37;;;;;;;11.13;8.23;;;;;;;;;;5036549;28;20742;-72
2022/03/14 10:00:06;;;;;;;10.27;8.07;;;;;;;;;;5036436;28;20605;-72
2022/03/14 10:02:37;;;;;;;8.83;7.20;;;;;;;;;;5033581;28;20282;-73
2022/03/14 10:05:07;;;;;;;9.63;7.50;;;;;;;;;;5033561;28;20677;-73
2022/03/14 10:07:35;;;;;;;8.80;7.47;;;;;;;;;;5039089;28;20200;-73
2022/03/14 10:10:05;;;;;;;7.50;6.67;;;;;;;;;;5037400;28;20232;-74
2022/03/14 10:12:33;;;;;;;9.03;6.57;;;;;;;;;;5039994;28;20199;-74
2022/03/14 10:15:06;;;;;;;7.37;6.17;;;;;;;;;;5037212;28;20207;-73
2022/03/14 10:17:35;;;;;;;7.47;6.63;;;;;;;;;;5039299;28;20239;-72
2022/03/14 10:20:06;;;;;;;9.03;7.03;;;;;;;;;;5039790;28;20295;-71
2022/03/14 10:22:35;;;;;;;7.93;6.80;;;;;;;;;;5039041;28;20196;-73
2022/03/14 10:25:08;;;;;;;9.97;6.27;;;;;;;;;;5036802;28;20726;-72
2022/03/14 10:27:37;;;;;;;6.50;5.90;;;;;;;;;;5039709;28;20199;-72
2022/03/14 10:30:07;;;;;;;9.43;6.30;;;;;;;;;;5037055;28;20258;-73
2022/03/14 10:32:40;;;;;;;7.67;6.13;;;;;;;;;;5039678;28;20211;-72
2022/03/14 10:35:08;;;;;;;6.20;5.60;;;;;;;;;;5039352;28;20239;-72
2022/03/14 10:37:37;;;;;;;7.63;6.20;;;;;;;;;;5038906;28;20250;-72
2022/03/14 10:40:07;;;;;;;6.47;5.70;;;;;;;;;;5036909;28;20227;-73
2022/03/14 10:42:39;;;;;;;8.03;5.63;;;;;;;;;;5039390;28;20283;-72
2022/03/14 10:45:10;;;;;;;7.77;6.00;;;;;;;;;;5036835;28;20270;-73
2022/03/14 10:47:43;;;;;;;6.43;5.83;;;;;;;;;;5038978;28;20235;-73
2022/03/14 10:50:27;;;;;;;6.63;5.73;;;;;;;;;;5038999;28;20306;-73
2022/03/14 10:53:07;;;;;;;6.50;5.83;;;;;;;;;;5037481;28;20286;-73
2022/03/14 10:55:40;;;;;;;6.20;5.43;;;;;;;;;;5037567;28;20314;-72
2022/03/14 10:58:22;;;;;;;12.27;9.00;;;;;;;;;;5039156;28;20231;-72
2022/03/14 11:00:51;;;;;;;6.33;5.73;;;;;;;;;;5039007;28;20238;-72
2022/03/14 11:03:23;;;;;;;6.87;5.60;;;;;;;;;;5039104;28;20266;-73
2022/03/14 11:05:51;;;;;;;5.90;5.30;;;;;;;;;;5038574;28;20556;-73
2022/03/14 11:08:26;;;;;;;5.77;4.70;;;;;;;;;;5039221;28;20295;-73
2022/03/14 11:10:56;;;;;;;6.10;5.30;;;;;;;;;;5039249;28;20310;-72
2022/03/14 11:13:24;;;;;;;6.30;5.70;;;;;;;;;;5030017;28;20207;-71
2022/03/14 11:15:52;;;;;;;7.17;6.17;;;;;;;;;;5039013;28;20318;-72
2022/03/14 11:18:20;;;;;;;6.43;5.47;;;;;;;;;;5038619;28;20640;-73
2022/03/14 11:20:48;;;;;;;6.07;5.47;;;;;;;;;;5038979;28;20286;-72
2022/03/14 11:23:17;;;;;;;9.90;5.67;;;;;;;;;;5038335;28;20622;-72
2022/03/14 11:25:45;;;;;;;5.33;4.80;;;;;;;;;;5038467;28;20730;-71
2022/03/14 11:28:17;;;;;;;6.50;4.97;;;;;;;;;;5038663;28;20207;-71
2022/03/14 11:31:00;;;;;;;6.40;5.50;;;;;;;;;;5038682;28;20254;-71
2022/03/14 11:33:28;;;;;;;8.10;5.10;;;;;;;;;;5039010;28;20243;-72
2022/03/14 11:35:56;;;;;;;7.13;5.10;;;;;;;;;;5038258;28;20266;-72
2022/03/14 11:38:24;;;;;;;5.97;5.27;;;;;;;;;;5038457;28;20650;-72
2022/03/14 11:40:52;;;;;;;7.57;5.87;;;;;;;;;;5033992;28;20288;-72
2022/03/14 11:43:22;;;;;;;7.93;5.83;;;;;;;;;;5037994;28;20227;-71
2022/03/14 11:45:51;;;;;;;7.47;5.60;;;;;;;;;;5036992;28;20277;-71
2022/03/14 11:48:19;;;;;;;11.00;7.13;;;;;;;;;;5037515;28;20632;-71
2022/03/14 11:50:48;;;;;;;8.90;5.60;;;;;;;;;;5037842;28;20237;-72
2022/03/14 11:53:23;;;;;;;6.40;5.70;;;;;;;;;;5037730;28;20275;-72
2022/03/14 11:55:52;;;;;;;6.33;5.73;;;;;;;;;;5028286;28;20219;-71
2022/03/14 11:58:35;;;;;;;6.80;6.10;;;;;;;;;;5037797;28;20287;-72
2022/03/14 12:01:17;;;;;;;6.70;6.00;;;;;;;;;;5029989;28;20234;-72
2022/03/14 12:03:47;;;;;;;6.50;5.57;;;;;;;;;;5018412;28;20232;-72
2022/03/14 12:06:16;;;;;;;6.20;5.13;;;;;;;;;;5032757;28;20231;-72
2022/03/14 12:08:54;;;;;;;5.37;4.70;;;;;;;;;;5037452;28;20287;-72
2022/03/14 12:11:40;;;;;;;6.07;4.77;;;;;;;;;;5036277;28;20234;-72
2022/03/14 12:14:12;;;;;;;7.50;5.27;;;;;;;;;;5031495;28;20639;-72
2022/03/14 12:16:41;;;;;;;5.87;4.67;;;;;;;;;;5037612;28;20258;-72
2022/03/14 12:19:29;;;;;;;6.77;5.03;;;;;;;;;;5037627;28;20210;-72
2022/03/14 12:21:58;;;;;;;5.33;4.83;;;;;;;;;;5037502;28;20678;-72
2022/03/14 12:24:45;;;;;;;5.20;4.70;;;;;;;;;;5037416;28;20200;-72
2022/03/14 12:27:15;;;;;;;6.03;5.43;;;;;;;;;;5035926;28;20265;-72
2022/03/14 12:29:44;;;;;;;7.30;5.20;;;;;;;;;;5036763;28;20279;-72
2022/03/14 12:32:25;;;;;;;6.10;5.50;;;;;;;;;;5037090;28;20777;-72
2022/03/14 12:34:58;;;;;;;6.20;5.60;;;;;;;;;;5035870;28;20263;-72
2022/03/14 12:37:32;;;;;;;6.00;5.40;;;;;;;;;;5035029;28;20231;-71
2022/03/14 12:40:00;;;;;;;6.50;5.30;;;;;;;;;;5037598;28;20291;-72
2022/03/14 12:42:29;;;;;;;7.00;5.33;;;;;;;;;;5037381;28;20659;-72
2022/03/14 12:45:21;;;;;;;5.67;5.03;;;;;;;;;;5037149;28;20282;-73
2022/03/14 12:47:57;;;;;;;5.60;4.50;;;;;;;;;;5035058;28;20231;-71
2022/03/14 12:50:46;;;;;;;5.30;4.60;;;;;;;;;;5036227;28;20245;-71
2022/03/14 12:53:15;;;;;;;6.47;5.53;;;;;;;;;;5035053;28;20242;-72
2022/03/14 12:55:44;;;;;;;6.93;5.77;;;;;;;;;;5036790;28;20258;-72
2022/03/14 12:58:17;;;;;;;6.67;5.73;;;;;;;;;;5036996;28;20283;-73
2022/03/14 13:00:47;;;;;;;5.97;5.20;;;;;;;;;;5048236;28;20369;-73
2022/03/14 13:03:24;;;;;;;7.20;5.80;;;;;;;;;;5031117;28;20208;-70
2022/03/14 13:05:53;;;;;;;6.37;5.40;;;;;;;;;;5047776;28;20774;-72
2022/03/14 13:08:21;;;;;;;5.60;5.00;;;;;;;;;;5051440;28;20289;-70
2022/03/14 13:10:51;;;;;;;5.13;4.67;;;;;;;;;;5053214;28;20628;-71
2022/03/14 13:13:24;;;;;;;8.37;6.03;;;;;;;;;;5050639;28;20238;-75
2022/03/14 13:16:04;;;;;;;9.07;5.77;;;;;;;;;;5047995;28;20218;-74
2022/03/14 13:18:33;;;;;;;7.07;4.67;;;;;;;;;;5049829;28;20226;-73
2022/03/14 13:21:02;;;;;;;6.87;4.70;;;;;;;;;;5053242;28;20203;-73
2022/03/14 13:23:33;;;;;;;7.30;5.27;;;;;;;;;;5048530;28;20234;-74
2022/03/14 13:26:01;;;;;;;5.93;4.60;;;;;;;;;;5052018;28;20257;-73
2022/03/14 13:28:29;;;;;;;6.97;5.10;;;;;;;;;;5036879;28;20287;-73
2022/03/14 13:30:58;;;;;;;5.57;4.97;;;;;;;;;;5036831;28;20731;-73
2022/03/14 13:33:28;;;;;;;5.87;4.77;;;;;;;;;;5036330;28;20245;-73
2022/03/14 13:35:57;;;;;;;5.73;5.13;;;;;;;;;;5034691;28;20699;-74
2022/03/14 13:38:31;;;;;;;5.27;4.63;;;;;;;;;;5035227;28;20243;-72
2022/03/14 13:41:00;;;;;;;6.73;5.30;;;;;;;;;;5036631;28;20223;-73
2022/03/14 13:43:28;;;;;;;5.70;4.97;;;;;;;;;;5039143;28;20207;-74
2022/03/14 13:46:10;;;;;;;6.70;4.90;;;;;;;;;;5027600;28;20263;-73
2022/03/14 13:48:50;;;;;;;8.43;5.20;;;;;;;;;;5038592;28;20786;-75
2022/03/14 13:51:18;;;;;;;5.07;4.53;;;;;;;;;;5040144;28;20290;-73
2022/03/14 13:53:47;;;;;;;5.30;4.80;;;;;;;;;;5040185;28;20279;-73
2022/03/14 13:56:15;;;;;;;4.67;4.27;;;;;;;;;;5040516;28;20239;-73
2022/03/14 13:59:03;;;;;;;7.00;4.57;;;;;;;;;;5040376;28;20212;-73
2022/03/14 14:01:45;;;;;;;5.73;3.93;;;;;;;;;;5040260;28;20738;-73
2022/03/14 14:04:16;;;;;;;4.80;4.10;;;;;;;;;;5040366;28;20207;-72
2022/03/14 14:06:48;;;;;;;4.83;4.13;;;;;;;;;;5040031;28;20262;-72
2022/03/14 14:09:20;;;;;;;5.63;5.00;;;;;;;;;;5040163;28;20857;-72
2022/03/14 14:12:01;;;;;;;5.03;4.30;;;;;;;;;;5040107;28;20310;-73
2022/03/14 14:14:30;;;;;;;5.87;4.73;;;;;;;;;;5040515;28;20207;-73
2022/03/14 14:17:11;;;;;;;6.57;3.83;;;;;;;;;;5040752;28;20660;-73
2022/03/14 14:19:54;;;;;;;4.20;3.80;;;;;;;;;;5041467;28;20290;-73
2022/03/14 14:22:29;;;;;;;4.53;3.80;;;;;;;;;;5040109;28;20302;-73
2022/03/14 14:24:58;;;;;;;4.77;4.27;;;;;;;;;;5040157;28;20203;-73
2022/03/14 14:27:27;;;;;;;4.57;3.63;;;;;;;;;;5040186;28;20211;-73
2022/03/14 14:29:56;;;;;;;6.13;3.57;;;;;;;;;;5039712;28;20690;-74
2022/03/14 14:32:27;;;;;;;6.77;3.80;;;;;;;;;;5040025;28;20227;-74
2022/03/14 14:34:57;;;;;;;4.00;3.60;;;;;;;;;;5039815;28;20778;-73
2022/03/14 14:37:26;;;;;;;8.33;3.80;;;;;;;;;;5039424;28;20702;-73
2022/03/14 14:39:55;;;;;;;5.33;3.97;;;;;;;;;;5039884;28;20271;-72
2022/03/14 14:42:23;;;;;;;4.77;3.77;;;;;;;;;;5039832;28;20284;-72
2022/03/14 14:44:57;;;;;;;5.67;4.00;;;;;;;;;;5037968;28;20223;-73
2022/03/14 14:47:25;;;;;;;5.93;4.43;;;;;;;;;;5039168;28;20236;-72
2022/03/14 14:49:54;;;;;;;8.13;5.20;;;;;;;;;;5039267;28;20663;-72
2022/03/14 14:52:27;;;;;;;7.53;5.33;;;;;;;;;;5038458;28;20260;-71
2022/03/14 14:55:00;;;;;;;5.43;4.47;;;;;;;;;;5039065;28;20559;-71
2022/03/14 14:57:28;;;;;;;6.13;4.80;;;;;;;;;;5039489;28;20223;-71